Angleton, Texas
Current Conditions -  °F | °C
As of 7:53 AM on Saturday 01 Nov 2014 (Local Time) from KLBX Reporting Station
Clear Clear  
Wind Chill: 45°   Ceiling: Unl
Heat Index: 49°   Visibility: 10mi
Dew Point: 45°   Wind: 9mph
Humidity: 86%   Direction: 30°NNE
Pressure: 30.36"   Gusts: NA
Location:  29.16°N, 95.43°W
Report Text: KLBX 011253Z AUTO 03008KT 10SM CLR 09/07 A3036 RMK AO2 SLP280 T00940072
Loading
Personal Weather Stations






























Interactive Weather Map
Tropical Storm Tracking
New forecast layout! Learn more

10-Day Weather Forecast

Advertisements
Track Severe Weather on mobile